createdAt,value
2023-02-15T00:00:40.930Z,69.42
2023-02-15T00:05:42.263Z,69.40
2023-02-15T00:10:43.626Z,69.39
2023-02-15T00:15:44.969Z,69.24
2023-02-15T00:20:46.273Z,69.02
2023-02-15T00:25:47.665Z,69.15
2023-02-15T00:30:49.060Z,69.32
2023-02-15T00:35:57.208Z,69.11
2023-02-15T00:41:01.768Z,68.85
2023-02-15T00:46:05.308Z,69.56
2023-02-15T00:51:07.007Z,69.51
2023-02-15T00:56:08.404Z,69.29
2023-02-15T01:01:16.148Z,68.85
2023-02-15T01:06:18.405Z,69.33
2023-02-15T01:11:25.022Z,69.31
2023-02-15T01:16:28.973Z,69.48
2023-02-15T01:21:30.433Z,69.22
2023-02-15T01:26:31.813Z,69.19
2023-02-15T01:31:33.219Z,69.38
2023-02-15T01:36:35.334Z,69.23
2023-02-15T01:41:37.194Z,69.07
2023-02-15T01:46:44.090Z,68.87
2023-02-15T01:51:48.884Z,68.92
2023-02-15T01:56:50.355Z,68.96
2023-02-15T02:01:59.273Z,68.90
2023-02-15T02:07:01.031Z,69.18
2023-02-15T02:12:02.513Z,68.76
2023-02-15T02:17:10.213Z,68.66
2023-02-15T02:22:20.808Z,68.43
2023-02-15T02:27:33.647Z,68.75
2023-02-15T02:32:56.453Z,68.80
2023-02-15T02:38:12.546Z,68.91
2023-02-15T02:43:26.819Z,68.28
2023-02-15T02:48:32.228Z,68.88
2023-02-15T02:53:34.860Z,68.67
2023-02-15T02:58:45.962Z,68.83
2023-02-15T03:04:05.888Z,69.25
2023-02-15T03:09:46.717Z,68.59
2023-02-15T03:14:56.643Z,68.68
2023-02-15T03:20:02.559Z,68.68
2023-02-15T03:25:09.425Z,68.75
2023-02-15T03:30:12.938Z,68.64
2023-02-15T03:35:14.440Z,68.38
2023-02-15T03:40:53.936Z,68.56
2023-02-15T03:46:01.128Z,68.20
2023-02-15T03:51:27.287Z,68.92
2023-02-15T03:56:28.615Z,68.93
2023-02-15T04:01:59.024Z,68.83
2023-02-15T04:07:01.309Z,68.39
2023-02-15T04:12:02.669Z,68.27
2023-02-15T04:17:07.203Z,68.71
2023-02-15T04:22:27.205Z,68.46
2023-02-15T04:27:28.569Z,68.76
2023-02-15T04:32:29.875Z,68.92
2023-02-15T04:37:31.201Z,68.46
2023-02-15T04:42:33.179Z,68.58
2023-02-15T04:47:34.788Z,68.83
2023-02-15T04:52:36.543Z,68.42
2023-02-15T04:57:37.947Z,68.52
2023-02-15T05:02:39.373Z,69.18
2023-02-15T05:07:40.744Z,69.00
2023-02-15T05:12:42.093Z,69.23
2023-02-15T05:17:43.412Z,68.86
2023-02-15T05:22:45.058Z,68.76
2023-02-15T05:28:05.430Z,69.35
2023-02-15T05:33:07.999Z,69.18
2023-02-15T05:38:09.564Z,68.59
2023-02-15T05:43:10.998Z,69.25
2023-02-15T05:48:12.747Z,68.89
2023-02-15T05:53:14.181Z,68.82
2023-02-15T05:58:15.508Z,69.04
2023-02-15T06:03:16.837Z,69.19
2023-02-15T06:08:18.578Z,69.09
2023-02-15T06:13:19.934Z,68.87
2023-02-15T06:18:21.515Z,69.61
2023-02-15T06:23:23.037Z,69.32
2023-02-15T06:28:26.378Z,69.63
2023-02-15T06:33:28.064Z,69.67
2023-02-15T06:38:29.456Z,69.63
2023-02-15T06:43:30.820Z,69.58
2023-02-15T06:48:32.265Z,69.74
2023-02-15T06:53:33.914Z,69.39
2023-02-15T06:58:36.523Z,69.58
2023-02-15T07:03:38.145Z,69.47
2023-02-15T07:08:40.258Z,69.91
2023-02-15T07:13:43.510Z,69.43
2023-02-15T07:18:45.037Z,69.77
2023-02-15T07:23:47.748Z,69.76
2023-02-15T07:28:49.364Z,70.51
2023-02-15T07:33:51.254Z,70.70
2023-02-15T07:38:52.715Z,70.28
2023-02-15T07:43:54.325Z,70.48
2023-02-15T07:48:55.894Z,70.21
2023-02-15T07:53:57.558Z,71.13
2023-02-15T07:59:00.610Z,70.58
2023-02-15T08:04:03.591Z,70.86
2023-02-15T08:09:07.257Z,71.50
2023-02-15T08:14:08.720Z,71.80
2023-02-15T08:19:16.915Z,71.36
2023-02-15T08:24:21.291Z,71.19
2023-02-15T08:29:25.836Z,71.29
2023-02-15T08:34:27.303Z,71.54
2023-02-15T08:39:29.459Z,71.95
2023-02-15T08:44:30.892Z,72.05
2023-02-15T08:49:32.771Z,72.08
2023-02-15T08:54:34.151Z,72.09
2023-02-15T08:59:35.473Z,72.35
2023-02-15T09:04:36.775Z,72.07
2023-02-15T09:09:38.104Z,72.34
2023-02-15T09:14:39.471Z,72.34
2023-02-15T09:19:40.808Z,72.40
2023-02-15T09:24:42.284Z,72.03
2023-02-15T09:29:43.708Z,72.37
2023-02-15T09:34:45.111Z,72.26
2023-02-15T09:39:49.065Z,72.74
2023-02-15T09:45:25.426Z,72.09
2023-02-15T09:50:44.956Z,72.29
2023-02-15T09:56:01.257Z,72.31
2023-02-15T10:01:17.910Z,72.29
2023-02-15T10:06:49.162Z,72.31
2023-02-15T10:12:11.957Z,71.83
2023-02-15T10:17:53.758Z,72.08
2023-02-15T10:23:07.280Z,71.73
2023-02-15T10:28:27.529Z,71.74
2023-02-15T10:33:39.575Z,71.25
2023-02-15T10:39:02.304Z,71.13
2023-02-15T10:44:26.746Z,71.53
2023-02-15T10:49:41.468Z,71.34
2023-02-15T10:54:56.558Z,71.40
2023-02-15T11:00:06.292Z,71.26
2023-02-15T11:05:32.299Z,71.13
2023-02-15T11:10:43.808Z,70.75
2023-02-15T11:16:26.647Z,71.10
2023-02-15T11:21:37.786Z,71.14
2023-02-15T11:26:57.616Z,70.93
2023-02-15T11:32:25.944Z,70.61
2023-02-15T11:37:36.963Z,70.84
2023-02-15T11:42:38.338Z,70.61
2023-02-15T11:47:39.704Z,70.58
2023-02-15T11:52:41.055Z,70.49
2023-02-15T11:57:48.074Z,69.93
2023-02-15T12:02:54.672Z,70.44
2023-02-15T12:08:22.306Z,70.25
2023-02-15T12:13:24.492Z,69.81
2023-02-15T12:18:42.143Z,69.88
2023-02-15T12:23:50.105Z,69.17
2023-02-15T12:28:53.171Z,69.46
2023-02-15T12:33:58.219Z,69.46
2023-02-15T12:39:08.721Z,69.16
2023-02-15T12:44:20.708Z,69.68
2023-02-15T12:49:22.211Z,69.81
2023-02-15T12:54:23.904Z,69.22
2023-02-15T12:59:25.852Z,69.04
2023-02-15T13:04:30.401Z,68.84
2023-02-15T13:09:32.099Z,69.10
2023-02-15T13:14:34.386Z,68.68
2023-02-15T13:19:40.916Z,68.81
2023-02-15T13:24:50.928Z,68.11
2023-02-15T13:30:00.155Z,68.39
2023-02-15T13:35:06.142Z,68.14
2023-02-15T13:40:25.525Z,68.56
2023-02-15T13:45:56.070Z,68.91
2023-02-15T13:51:19.250Z,68.65
2023-02-15T13:56:33.366Z,68.48
2023-02-15T14:01:56.764Z,69.35
2023-02-15T14:07:22.589Z,68.34
2023-02-15T14:12:38.955Z,68.69
2023-02-15T14:17:56.389Z,68.66
2023-02-15T14:23:30.735Z,68.97
2023-02-15T14:28:59.139Z,68.40
2023-02-15T14:34:00.544Z,68.01
2023-02-15T14:39:55.944Z,68.30
2023-02-15T14:45:06.018Z,68.19
2023-02-15T14:50:32.192Z,68.62
2023-02-15T14:55:37.474Z,68.28
2023-02-15T15:00:40.794Z,68.23
2023-02-15T15:05:59.542Z,67.64
2023-02-15T15:11:41.128Z,68.72
2023-02-15T15:16:49.682Z,68.47
2023-02-15T15:21:50.961Z,68.63
2023-02-15T15:27:30.692Z,67.76
2023-02-15T15:32:35.612Z,67.50
2023-02-15T15:37:52.753Z,67.59
2023-02-15T15:43:06.067Z,67.96
2023-02-15T15:48:29.287Z,67.87
2023-02-15T15:53:40.869Z,68.18
2023-02-15T15:58:47.327Z,68.13
2023-02-15T16:03:53.938Z,67.88
2023-02-15T16:08:55.805Z,68.31
2023-02-15T16:13:57.181Z,68.28
2023-02-15T16:19:00.432Z,68.14
2023-02-15T16:24:31.373Z,68.50
2023-02-15T16:29:34.678Z,68.62
2023-02-15T16:34:36.034Z,68.33
2023-02-15T16:39:42.154Z,68.78
2023-02-15T16:44:46.028Z,68.39
2023-02-15T16:49:50.594Z,68.99
2023-02-15T16:54:58.883Z,68.61
2023-02-15T17:00:09.167Z,68.53
2023-02-15T17:05:14.473Z,68.88
2023-02-15T17:10:29.737Z,69.16
2023-02-15T17:15:36.840Z,69.19
2023-02-15T17:20:42.648Z,69.50
2023-02-15T17:25:44.363Z,69.16
2023-02-15T17:30:47.232Z,69.16
2023-02-15T17:36:12.601Z,69.49
2023-02-15T17:41:17.025Z,70.29
2023-02-15T17:46:19.609Z,69.48
2023-02-15T17:51:22.023Z,69.83
2023-02-15T17:56:23.379Z,70.43
2023-02-15T18:01:43.531Z,70.25
2023-02-15T18:07:03.196Z,70.35
2023-02-15T18:12:32.117Z,69.89
2023-02-15T18:17:39.055Z,70.58
2023-02-15T18:22:40.406Z,70.35
2023-02-15T18:27:41.758Z,70.80
2023-02-15T18:32:45.881Z,70.52
2023-02-15T18:37:48.258Z,70.43
2023-02-15T18:42:49.753Z,70.80
2023-02-15T18:47:51.745Z,70.25
2023-02-15T18:52:53.837Z,70.66
2023-02-15T18:57:58.891Z,70.39
2023-02-15T19:03:04.734Z,70.90
2023-02-15T19:08:16.920Z,70.96
2023-02-15T19:13:18.286Z,70.68
2023-02-15T19:18:19.656Z,70.95
2023-02-15T19:23:23.345Z,70.32
2023-02-15T19:28:31.055Z,70.57
2023-02-15T19:33:32.421Z,70.72
2023-02-15T19:38:37.395Z,70.97
2023-02-15T19:43:38.950Z,71.03
2023-02-15T19:48:40.321Z,70.73
2023-02-15T19:53:41.820Z,71.13
2023-02-15T19:58:43.158Z,71.29
2023-02-15T20:03:44.706Z,71.05
2023-02-15T20:08:46.198Z,70.54
2023-02-15T20:13:47.650Z,70.07
2023-02-15T20:18:49.114Z,71.09
2023-02-15T20:23:50.503Z,70.97
2023-02-15T20:28:52.536Z,71.23
2023-02-15T20:33:53.959Z,71.02
2023-02-15T20:38:57.310Z,70.94
2023-02-15T20:43:58.742Z,70.90
2023-02-15T20:49:00.130Z,70.65
2023-02-15T20:54:01.594Z,70.76
2023-02-15T20:59:06.401Z,70.76
2023-02-15T21:04:10.212Z,70.90
2023-02-15T21:09:14.446Z,71.08
2023-02-15T21:14:25.228Z,70.66
2023-02-15T21:19:27.364Z,70.40
2023-02-15T21:24:29.380Z,70.82
2023-02-15T21:29:31.030Z,70.65
2023-02-15T21:34:32.367Z,71.05
2023-02-15T21:39:36.168Z,71.54
2023-02-15T21:44:56.869Z,71.06
2023-02-15T21:49:58.283Z,71.16
2023-02-15T21:54:59.642Z,71.64
2023-02-15T22:00:02.717Z,70.76
2023-02-15T22:05:13.464Z,71.17
2023-02-15T22:10:15.049Z,71.32
2023-02-15T22:15:24.983Z,70.75
2023-02-15T22:20:26.412Z,71.21
2023-02-15T22:25:27.853Z,70.90
2023-02-15T22:30:32.585Z,71.00
2023-02-15T22:35:36.652Z,71.48
2023-02-15T22:40:38.023Z,71.41
2023-02-15T22:45:39.470Z,71.43
2023-02-15T22:50:40.858Z,71.63
2023-02-15T22:55:42.539Z,71.61
2023-02-15T23:00:44.928Z,72.01
2023-02-15T23:05:46.979Z,71.41
2023-02-15T23:10:53.999Z,71.25
2023-02-15T23:16:01.197Z,71.52
2023-02-15T23:21:15.555Z,71.09
2023-02-15T23:26:23.102Z,71.55
2023-02-15T23:31:28.359Z,70.88
2023-02-15T23:36:35.434Z,71.28
2023-02-15T23:41:36.794Z,71.35
2023-02-15T23:46:46.427Z,71.91
2023-02-15T23:51:50.378Z,71.65
2023-02-15T23:56:57.368Z,71.60
